Main page
METAR-TAF:

METAR-TAF

Airports :

Budapest, Hungary

Budapest Ferenc Liszt International Airport

latitude: 47-26N, longitude: 019-16E, elevation: 151 m

Current weather observation

The report was made 30 minutes ago, at 11:30 UTC
Wind 17 kt from the Northwest
Temperature 8°C
Humidity 46%
Pressure 1023 hPa
Visibility 10 km or more
no clouds below 1500 m and no cumulonimbus

METAR: LHBP 251130Z 31017KT CAVOK 08/M03 Q1023 NOSIG

Time: 13:00 (12:00 UTC)

Forecast

The report was made 1 hour and 0 minutes ago, at 11:00 UTC
Forecast valid from 25 at 12 UTC to 26 at 12 UTC
Wind 14 kt from the West/Northwest with gusts up to 25 kt
Visibility 10 km or more
no clouds below 1500 m and no cumulonimbus
Becoming
from 25 at 16 UTC to 25 at 18 UTC
Wind 3 kt from variable directions
Becoming
from 26 at 06 UTC to 26 at 08 UTC
Wind 5 kt from the South

TAF: LHBP 251100Z 2512/2612 29014G25KT CAVOK BECMG 2516/2518 VRB03KT BECMG 2606/2608 18005KT

Weather observations and forecasts of more than 4000 airports (METAR and TAF reports).

The available stations are represented by yellow and red dots on the map.

Hover mouse over dot to see the name of the station.

Then click to see weather observations and forecasts.

To change the map : click on the green buttons with a black cross to zoom in, on the green button with a dash to zoom out, or on the green arrows for adjacent maps.


METAR-TAF: